Ipava, Illinois
Current Conditions -  °F | °C
As of 6:35 PM on Saturday 22 Nov 2014 (Local Time) from KMQB Reporting Station
Overcast Overcast  
Wind Chill: 54°   Ceiling: 2700
Heat Index: 54°   Visibility: 10mi
Dew Point: 48°   Wind: 10mph
Humidity: 80%   Direction: 170°S
Pressure: 29.87"   Gusts: NA
Location:  40.35°N, 90.32°W
Report Text: KMQB 230035Z AUTO 17009KT 10SM OVC027 12/09 A2987 RMK AO2 T01220089
Loading
Personal Weather Stations






























Interactive Weather Map New forecast layout! Learn more

10-Day Weather Forecast

Advertisements
Track Severe Weather on mobile